Terminal Aerodrome Forecast
Issued by NWS

Home | Current Version | Previous Version | Text Only | Print | Product List | Glossary On
Versions: 1 2 3 4 5 6 7 8 9 10 11 12 13 14 15 16 17
602
FTUS43 KDLH 302154 AAC
TAFHIB
TAF AMD
KHIB 302154Z 3022/0118 09012G20KT P6SM BKN060
     FM010200 09006KT P6SM SKC
     FM011400 01012KT P6SM SCT050=

USA.gov is the U.S. government's official web portal to all federal, state and local government web resources and services.